createdAt,value
2022-08-04T00:00:18.838Z,0.00
2022-08-04T00:01:18.894Z,0.00
2022-08-04T00:02:18.846Z,0.00
2022-08-04T00:03:18.863Z,0.00
2022-08-04T00:04:18.872Z,0.00
2022-08-04T00:05:18.867Z,0.00
2022-08-04T00:06:18.867Z,0.00
2022-08-04T00:07:18.936Z,0.00
2022-08-04T00:08:18.875Z,0.00
2022-08-04T00:09:18.977Z,0.00
2022-08-04T00:10:18.896Z,0.00
2022-08-04T00:11:18.895Z,0.00
2022-08-04T00:12:18.961Z,0.00
2022-08-04T00:13:18.897Z,0.00
2022-08-04T00:14:18.909Z,0.00
2022-08-04T00:15:18.929Z,0.00
2022-08-04T00:16:18.911Z,0.00
2022-08-04T00:17:18.988Z,0.00
2022-08-04T00:18:18.978Z,0.00
2022-08-04T00:19:18.931Z,0.00
2022-08-04T00:20:18.933Z,0.00
2022-08-04T00:21:18.959Z,0.00
2022-08-04T00:22:18.950Z,0.00
2022-08-04T00:23:19.035Z,0.00
2022-08-04T00:24:18.996Z,0.00
2022-08-04T00:25:18.962Z,0.00
2022-08-04T00:26:18.979Z,0.00
2022-08-04T00:27:19.232Z,0.00
2022-08-04T00:28:18.976Z,0.00
2022-08-04T00:29:18.994Z,0.00
2022-08-04T00:30:19.037Z,0.00
2022-08-04T00:31:19.000Z,0.00
2022-08-04T00:32:33.821Z,0.00
2022-08-04T00:33:19.005Z,0.00
2022-08-04T00:34:19.005Z,0.00
2022-08-04T00:35:19.011Z,0.00
2022-08-04T00:36:19.012Z,0.00
2022-08-04T00:37:19.139Z,0.00
2022-08-04T00:38:19.025Z,0.00
2022-08-04T00:39:19.648Z,0.00
2022-08-04T00:40:19.032Z,0.00
2022-08-04T00:41:19.047Z,0.00
2022-08-04T00:42:19.145Z,0.00
2022-08-04T00:43:19.051Z,0.00
2022-08-04T00:44:23.750Z,0.00
2022-08-04T00:45:19.056Z,0.00
2022-08-04T00:46:19.067Z,0.00
2022-08-04T00:47:19.225Z,0.00
2022-08-04T00:48:19.076Z,0.00
2022-08-04T00:49:19.072Z,0.00
2022-08-04T00:50:19.098Z,0.00
2022-08-04T00:51:19.100Z,0.00
2022-08-04T00:52:32.786Z,0.00
2022-08-04T00:53:19.088Z,0.00
2022-08-04T00:54:19.138Z,0.00
2022-08-04T00:55:19.187Z,0.00
2022-08-04T00:56:19.105Z,0.00
2022-08-04T00:57:29.947Z,0.00
2022-08-04T00:58:19.122Z,0.00
2022-08-04T00:59:19.125Z,0.00
2022-08-04T01:00:19.299Z,0.00
2022-08-04T01:01:19.210Z,0.00
2022-08-04T01:02:19.131Z,0.00
2022-08-04T01:03:19.146Z,0.00
2022-08-04T01:04:19.704Z,0.00
2022-08-04T01:05:19.148Z,0.00
2022-08-04T01:06:19.177Z,0.00
2022-08-04T01:07:19.265Z,0.00
2022-08-04T01:08:19.158Z,0.00
2022-08-04T01:09:21.466Z,0.00
2022-08-04T01:10:19.165Z,0.00
2022-08-04T01:11:19.173Z,0.00
2022-08-04T01:12:19.474Z,0.00
2022-08-04T01:13:19.186Z,0.00
2022-08-04T01:14:19.252Z,0.00
2022-08-04T01:15:19.363Z,0.00
2022-08-04T01:16:19.237Z,0.00
2022-08-04T01:17:19.249Z,0.00
2022-08-04T01:18:19.464Z,0.00
2022-08-04T01:19:19.208Z,0.00
2022-08-04T01:20:19.209Z,0.00
2022-08-04T01:21:19.457Z,0.00
2022-08-04T01:22:19.232Z,0.00
2022-08-04T01:23:19.252Z,0.00
2022-08-04T01:24:19.371Z,0.00
2022-08-04T01:25:19.251Z,0.00
2022-08-04T01:26:42.651Z,0.00
2022-08-04T01:27:19.631Z,0.00
2022-08-04T01:28:19.242Z,0.00
2022-08-04T01:29:19.281Z,0.00
2022-08-04T01:30:19.262Z,0.00
2022-08-04T01:31:19.283Z,0.00
2022-08-04T01:32:19.263Z,0.00
2022-08-04T01:33:19.306Z,0.00
2022-08-04T01:34:19.300Z,0.00
2022-08-04T01:35:22.350Z,0.00
2022-08-04T01:36:19.345Z,0.00
2022-08-04T01:37:19.436Z,0.00
2022-08-04T01:38:21.456Z,0.00
2022-08-04T01:39:19.372Z,0.00
2022-08-04T01:40:19.350Z,0.00
2022-08-04T01:41:19.310Z,0.00
2022-08-04T01:42:32.103Z,0.00
2022-08-04T01:43:19.334Z,0.00
2022-08-04T01:44:19.357Z,0.00
2022-08-04T01:45:19.333Z,0.00
2022-08-04T01:46:19.336Z,0.00
2022-08-04T01:47:19.497Z,0.00
2022-08-04T01:48:19.347Z,0.00
2022-08-04T01:49:19.342Z,0.00
2022-08-04T01:50:19.376Z,0.00
2022-08-04T01:51:19.382Z,0.00
2022-08-04T01:52:19.353Z,0.00
2022-08-04T01:53:19.358Z,0.00
2022-08-04T01:54:19.374Z,0.00
2022-08-04T01:55:19.368Z,0.00
2022-08-04T01:56:19.370Z,0.00
2022-08-04T01:57:37.978Z,0.00
2022-08-04T01:58:19.379Z,0.00
2022-08-04T01:59:19.383Z,0.00
2022-08-04T02:00:19.388Z,0.00
2022-08-04T02:01:19.506Z,0.00
2022-08-04T02:02:19.545Z,0.00
2022-08-04T02:03:19.407Z,0.00
2022-08-04T02:04:23.324Z,0.00
2022-08-04T02:05:19.408Z,0.00
2022-08-04T02:06:19.414Z,0.00
2022-08-04T02:07:19.723Z,0.00
2022-08-04T02:08:19.418Z,0.00
2022-08-04T02:09:19.422Z,0.00
2022-08-04T02:10:19.430Z,0.00
2022-08-04T02:11:19.430Z,0.00
2022-08-04T02:12:19.437Z,0.00
2022-08-04T02:13:19.440Z,0.00
2022-08-04T02:14:19.452Z,0.00
2022-08-04T02:15:19.453Z,0.00
2022-08-04T02:16:19.453Z,0.00
2022-08-04T02:17:19.733Z,0.00
2022-08-04T02:18:19.467Z,0.00
2022-08-04T02:19:19.479Z,0.00
2022-08-04T02:20:19.480Z,0.00
2022-08-04T02:21:19.475Z,0.00
2022-08-04T02:22:19.483Z,0.00
2022-08-04T02:23:19.490Z,0.00
2022-08-04T02:24:19.483Z,0.00
2022-08-04T02:25:19.490Z,0.00
2022-08-04T02:26:22.637Z,0.00
2022-08-04T02:27:19.807Z,0.00
2022-08-04T02:28:19.511Z,0.00
2022-08-04T02:29:19.510Z,0.00
2022-08-04T02:30:19.514Z,0.00
2022-08-04T02:31:19.517Z,0.00
2022-08-04T02:32:19.527Z,0.00
2022-08-04T02:33:19.537Z,0.00
2022-08-04T02:34:19.526Z,0.00
2022-08-04T02:35:19.537Z,0.00
2022-08-04T02:36:19.551Z,0.00
2022-08-04T02:37:19.858Z,0.00
2022-08-04T02:38:25.772Z,0.00
2022-08-04T02:39:19.569Z,0.00
2022-08-04T02:40:19.550Z,0.00
2022-08-04T02:41:19.571Z,0.00
2022-08-04T02:42:19.558Z,0.00
2022-08-04T02:43:19.601Z,0.00
2022-08-04T02:44:19.570Z,0.00
2022-08-04T02:45:19.573Z,0.00
2022-08-04T02:46:19.580Z,0.00
2022-08-04T02:47:19.965Z,0.00
2022-08-04T02:48:31.039Z,0.00
2022-08-04T02:49:19.581Z,0.00
2022-08-04T02:50:28.155Z,0.00
2022-08-04T02:51:19.607Z,0.00
2022-08-04T02:52:19.604Z,0.00
2022-08-04T02:53:19.602Z,0.00
2022-08-04T02:54:28.294Z,0.00
2022-08-04T02:55:19.632Z,0.00
2022-08-04T02:56:19.616Z,0.00
2022-08-04T02:57:19.934Z,0.00
2022-08-04T02:58:19.630Z,0.00
2022-08-04T02:59:19.625Z,0.00
2022-08-04T03:00:19.626Z,0.00
2022-08-04T03:01:19.726Z,0.00
2022-08-04T03:02:19.636Z,0.00
2022-08-04T03:03:19.632Z,0.00
2022-08-04T03:04:25.090Z,0.00
2022-08-04T03:05:19.652Z,0.00
2022-08-04T03:06:19.665Z,0.00
2022-08-04T03:07:19.897Z,0.00
2022-08-04T03:08:19.659Z,0.00
2022-08-04T03:09:19.668Z,0.00
2022-08-04T03:10:19.665Z,0.00
2022-08-04T03:11:19.664Z,0.00
2022-08-04T03:12:19.674Z,0.00
2022-08-04T03:13:19.673Z,0.00
2022-08-04T03:14:19.679Z,0.00
2022-08-04T03:15:19.686Z,0.00
2022-08-04T03:16:19.694Z,0.00
2022-08-04T03:17:19.986Z,0.00
2022-08-04T03:18:19.693Z,0.00
2022-08-04T03:19:19.703Z,0.00
2022-08-04T03:20:19.704Z,0.00
2022-08-04T03:21:19.723Z,0.00
2022-08-04T03:22:19.727Z,0.00
2022-08-04T03:23:19.710Z,0.00
2022-08-04T03:24:20.301Z,0.00
2022-08-04T03:25:19.721Z,0.00
2022-08-04T03:26:19.739Z,0.00
2022-08-04T03:27:20.026Z,0.00
2022-08-04T03:28:19.767Z,0.00
2022-08-04T03:29:35.982Z,0.00
2022-08-04T03:30:19.752Z,0.00
2022-08-04T03:31:19.750Z,0.00
2022-08-04T03:32:19.740Z,0.00
2022-08-04T03:33:19.744Z,0.00
2022-08-04T03:34:19.780Z,0.00
2022-08-04T03:35:22.973Z,0.00
2022-08-04T03:36:19.767Z,0.00
2022-08-04T03:37:20.095Z,0.00
2022-08-04T03:38:19.775Z,5.63
2022-08-04T03:39:19.817Z,5.63
2022-08-04T03:40:19.789Z,5.63
2022-08-04T03:41:51.608Z,5.63
2022-08-04T03:42:19.782Z,5.63
2022-08-04T03:43:57.374Z,5.63
2022-08-04T03:44:19.791Z,5.63
2022-08-04T03:45:23.445Z,5.63
2022-08-04T03:46:19.801Z,5.63
2022-08-04T03:47:20.142Z,5.63
2022-08-04T03:48:19.802Z,5.63
2022-08-04T03:49:19.800Z,5.63
2022-08-04T03:50:19.811Z,5.63
2022-08-04T03:51:35.693Z,11.25
2022-08-04T03:52:19.822Z,11.25
2022-08-04T03:53:19.824Z,11.25
2022-08-04T03:54:19.823Z,11.25
2022-08-04T03:55:19.830Z,11.25
2022-08-04T03:56:19.830Z,11.25
2022-08-04T03:57:20.109Z,11.25
2022-08-04T03:58:19.837Z,11.25
2022-08-04T03:59:19.841Z,11.25
2022-08-04T04:00:19.842Z,11.25
2022-08-04T04:01:19.850Z,16.88
2022-08-04T04:02:19.891Z,16.88
2022-08-04T04:03:28.332Z,16.88
2022-08-04T04:04:19.873Z,16.88
2022-08-04T04:05:19.857Z,16.88
2022-08-04T04:06:19.879Z,16.88
2022-08-04T04:07:27.877Z,16.88
2022-08-04T04:08:19.876Z,16.88
2022-08-04T04:09:20.827Z,16.88
2022-08-04T04:10:23.359Z,16.88
2022-08-04T04:11:19.915Z,22.50
2022-08-04T04:12:19.892Z,22.50
2022-08-04T04:13:19.891Z,22.50
2022-08-04T04:14:19.911Z,22.50
2022-08-04T04:15:19.902Z,22.50
2022-08-04T04:16:19.904Z,22.50
2022-08-04T04:17:20.129Z,22.50
2022-08-04T04:18:19.916Z,22.50
2022-08-04T04:19:19.916Z,22.50
2022-08-04T04:20:19.935Z,28.13
2022-08-04T04:21:19.937Z,28.13
2022-08-04T04:22:19.923Z,28.13
2022-08-04T04:23:19.935Z,28.13
2022-08-04T04:24:19.938Z,28.13
2022-08-04T04:25:19.941Z,28.13
2022-08-04T04:26:19.940Z,28.13
2022-08-04T04:27:20.242Z,28.13
2022-08-04T04:28:44.736Z,28.13
2022-08-04T04:29:19.943Z,33.75
2022-08-04T04:30:19.974Z,33.75
2022-08-04T04:31:19.957Z,33.75
2022-08-04T04:32:19.955Z,33.75
2022-08-04T04:33:19.957Z,33.75
2022-08-04T04:34:20.005Z,33.75
2022-08-04T04:35:19.971Z,33.75
2022-08-04T04:36:19.982Z,33.75
2022-08-04T04:37:20.224Z,33.75
2022-08-04T04:38:19.980Z,39.38
2022-08-04T04:39:20.037Z,39.38
2022-08-04T04:40:19.985Z,39.38
2022-08-04T04:41:19.999Z,39.38
2022-08-04T04:42:19.995Z,39.38
2022-08-04T04:43:19.993Z,39.38
2022-08-04T04:44:20.016Z,39.38
2022-08-04T04:45:20.011Z,39.38
2022-08-04T04:46:20.016Z,45.00
2022-08-04T04:48:01.698Z,45.00
2022-08-04T04:48:20.016Z,45.00
2022-08-04T04:49:20.020Z,45.00
2022-08-04T04:50:20.021Z,45.00
2022-08-04T04:51:20.025Z,45.00
2022-08-04T04:52:20.029Z,45.00
2022-08-04T04:53:20.037Z,45.00
2022-08-04T04:54:20.044Z,50.63
2022-08-04T04:55:20.072Z,50.63
2022-08-04T04:56:20.052Z,50.63
2022-08-04T04:57:20.287Z,50.63
2022-08-04T04:58:20.061Z,50.63
2022-08-04T04:59:20.077Z,50.63
2022-08-04T05:00:20.058Z,50.63
2022-08-04T05:01:20.064Z,50.63
2022-08-04T05:02:20.069Z,56.25
2022-08-04T05:03:20.075Z,56.25
2022-08-04T05:04:20.072Z,56.25
2022-08-04T05:05:20.075Z,56.25
2022-08-04T05:06:20.083Z,56.25
2022-08-04T05:07:20.325Z,56.25
2022-08-04T05:08:43.240Z,56.25
2022-08-04T05:09:20.117Z,56.25
2022-08-04T05:10:20.109Z,61.88
2022-08-04T05:11:20.111Z,61.88
2022-08-04T05:13:20.421Z,61.88
2022-08-04T05:14:38.406Z,61.88
2022-08-04T05:14:38.860Z,61.88
2022-08-04T05:15:25.184Z,61.88
2022-08-04T05:16:20.132Z,61.88
2022-08-04T05:17:20.305Z,67.50
2022-08-04T05:18:20.136Z,67.50
2022-08-04T05:19:20.138Z,67.50
2022-08-04T05:20:20.138Z,67.50
2022-08-04T05:21:20.143Z,67.50
2022-08-04T05:22:20.148Z,67.50
2022-08-04T05:23:20.160Z,67.50
2022-08-04T05:24:20.153Z,73.13
2022-08-04T05:25:20.164Z,73.13
2022-08-04T05:26:20.177Z,73.13
2022-08-04T05:27:20.404Z,73.13
2022-08-04T05:28:20.183Z,73.13
2022-08-04T05:29:20.193Z,73.13
2022-08-04T05:30:20.176Z,78.75
2022-08-04T05:31:20.180Z,78.75
2022-08-04T05:32:20.184Z,78.75
2022-08-04T05:33:20.203Z,78.75
2022-08-04T05:34:20.192Z,78.75
2022-08-04T05:35:49.834Z,78.75
2022-08-04T05:36:35.397Z,84.38
2022-08-04T05:37:20.453Z,84.38
2022-08-04T05:38:20.213Z,84.38
2022-08-04T05:39:20.301Z,90.00
2022-08-04T05:40:20.223Z,90.00
2022-08-04T05:41:20.254Z,90.00
2022-08-04T05:42:20.229Z,95.63
2022-08-04T05:43:20.234Z,101.25
2022-08-04T05:44:20.276Z,106.88
2022-08-04T05:45:20.361Z,146.25
2022-08-04T05:46:20.272Z,596.25
2022-08-04T05:47:20.500Z,1299.38
2022-08-04T05:48:20.251Z,1749.38
2022-08-04T05:49:22.220Z,1811.25
2022-08-04T05:50:20.262Z,1884.38
2022-08-04T05:51:20.265Z,1800.00
2022-08-04T05:52:20.298Z,1839.38
2022-08-04T05:53:20.291Z,1929.38
2022-08-04T05:54:20.295Z,1890.00
2022-08-04T05:55:56.696Z,1867.50
2022-08-04T05:56:20.309Z,1845.00
2022-08-04T05:57:20.585Z,1901.25
2022-08-04T05:58:20.333Z,1805.63
2022-08-04T05:59:20.336Z,1614.38
2022-08-04T06:00:40.215Z,1603.13
2022-08-04T06:01:20.419Z,1676.25
2022-08-04T06:02:20.403Z,1760.63
2022-08-04T06:03:20.375Z,1963.13
2022-08-04T06:04:20.394Z,1996.88
2022-08-04T06:05:20.396Z,1935.00
2022-08-04T06:06:20.412Z,1884.38
2022-08-04T06:07:20.595Z,1895.63
2022-08-04T06:08:20.438Z,1991.25
2022-08-04T06:09:20.471Z,1957.50
2022-08-04T06:10:25.412Z,1923.75
2022-08-04T06:11:20.477Z,1895.63
2022-08-04T06:12:20.501Z,1929.38
2022-08-04T06:13:48.217Z,1980.00
2022-08-04T06:14:20.529Z,1906.88
2022-08-04T06:15:20.538Z,1861.88
2022-08-04T06:16:28.580Z,1805.63
2022-08-04T06:18:32.701Z,1985.63
2022-08-04T06:18:58.545Z,1873.13
2022-08-04T06:20:03.983Z,1996.88
2022-08-04T06:20:23.387Z,2086.88
2022-08-04T06:21:20.623Z,2148.75
2022-08-04T06:22:20.646Z,2176.88
2022-08-04T06:23:20.652Z,2126.25
2022-08-04T06:24:20.681Z,2086.88
2022-08-04T06:25:20.754Z,2182.50
2022-08-04T06:26:20.722Z,2047.50
2022-08-04T06:27:20.938Z,2002.50
2022-08-04T06:28:20.736Z,2025.00
2022-08-04T06:29:20.749Z,2086.88
2022-08-04T06:30:20.785Z,2064.38
2022-08-04T06:32:29.669Z,2041.88
2022-08-04T06:32:30.411Z,2115.00
2022-08-04T06:33:20.824Z,2115.00
2022-08-04T06:34:20.836Z,2278.13
2022-08-04T06:35:20.849Z,2098.13
2022-08-04T06:36:20.875Z,2081.25
2022-08-04T06:37:24.166Z,2025.00
2022-08-04T06:38:21.181Z,1968.75
2022-08-04T06:39:20.954Z,2019.38
2022-08-04T06:40:30.983Z,2053.13
2022-08-04T06:41:20.948Z,2148.75
2022-08-04T06:42:22.546Z,2137.50
2022-08-04T06:43:20.978Z,2165.63
2022-08-04T06:47:21.637Z,2053.13
2022-08-04T06:48:21.073Z,1935.00
2022-08-04T06:49:21.107Z,2070.00
2022-08-04T06:51:27.048Z,2036.25
2022-08-04T06:51:32.342Z,1912.50
2022-08-04T06:52:21.157Z,1839.38
2022-08-04T06:53:21.159Z,1816.88
2022-08-04T06:54:21.191Z,1811.25
2022-08-04T06:55:21.207Z,1845.00
2022-08-04T06:56:21.211Z,1816.88
2022-08-04T06:57:21.434Z,1698.75
2022-08-04T06:58:21.300Z,1631.25
2022-08-04T06:59:21.306Z,1620.00
2022-08-04T07:00:21.320Z,1710.00
2022-08-04T07:01:21.348Z,1878.75
2022-08-04T07:02:21.388Z,1816.88
2022-08-04T07:03:21.404Z,2047.50
2022-08-04T07:04:21.382Z,2137.50
2022-08-04T07:05:21.399Z,2075.63
2022-08-04T07:06:21.418Z,2120.63
2022-08-04T07:07:33.791Z,2154.38
2022-08-04T07:08:21.429Z,2131.88
2022-08-04T07:09:21.458Z,2092.50
2022-08-04T07:10:22.283Z,2086.88
2022-08-04T07:11:21.485Z,2115.00
2022-08-04T07:12:21.504Z,2137.50
2022-08-04T07:13:21.515Z,2210.63
2022-08-04T07:14:21.564Z,2216.25
2022-08-04T07:15:21.577Z,2053.13
2022-08-04T07:16:21.579Z,1811.25
2022-08-04T07:17:21.760Z,1766.25
2022-08-04T07:18:21.614Z,1788.75
2022-08-04T07:21:21.972Z,1738.13
2022-08-04T07:23:21.706Z,1642.50
2022-08-04T07:24:23.244Z,1586.25
2022-08-04T07:25:22.746Z,1361.25
2022-08-04T07:26:22.888Z,1231.88
2022-08-04T07:27:47.183Z,1113.75
2022-08-04T07:28:25.161Z,1018.13
2022-08-04T07:29:23.166Z,956.25
2022-08-04T07:31:33.669Z,832.50
2022-08-04T07:34:22.594Z,731.25
2022-08-04T07:36:03.985Z,714.38
2022-08-04T07:36:22.244Z,714.38
2022-08-04T07:37:23.111Z,720.00
2022-08-04T07:39:28.743Z,703.13
2022-08-04T07:40:22.401Z,703.13
2022-08-04T07:42:44.166Z,686.25
2022-08-04T07:43:23.310Z,675.00
2022-08-04T07:46:22.857Z,646.88
2022-08-04T07:47:25.474Z,641.25
2022-08-04T07:49:55.737Z,641.25
2022-08-04T07:53:23.479Z,646.88
2022-08-04T07:55:23.226Z,635.63
2022-08-04T07:56:22.829Z,630.00
2022-08-04T07:59:23.080Z,618.75
2022-08-04T08:04:23.011Z,585.00
2022-08-04T08:06:32.869Z,534.38
2022-08-04T08:10:23.205Z,388.13
2022-08-04T08:15:22.771Z,360.00
2022-08-04T08:16:22.760Z,360.00
2022-08-04T08:17:23.050Z,354.38
2022-08-04T08:18:23.739Z,348.75
2022-08-04T08:19:23.296Z,343.13
2022-08-04T08:20:31.261Z,337.50
2022-08-04T08:21:22.850Z,337.50
2022-08-04T08:22:24.096Z,331.88
2022-08-04T08:23:24.253Z,320.63
2022-08-04T08:24:24.268Z,320.63
2022-08-04T08:25:23.970Z,309.38
2022-08-04T08:26:23.851Z,303.75
2022-08-04T08:27:23.453Z,298.13
2022-08-04T08:28:24.083Z,292.50
2022-08-04T08:29:22.998Z,281.25
2022-08-04T08:30:23.108Z,275.63
2022-08-04T08:31:55.593Z,275.63
2022-08-04T08:32:23.893Z,275.63
2022-08-04T08:33:23.051Z,270.00
2022-08-04T08:34:28.117Z,258.75
2022-08-04T08:35:23.160Z,253.13
2022-08-04T08:36:23.107Z,253.13
2022-08-04T08:37:23.918Z,247.50
2022-08-04T08:38:24.229Z,247.50
2022-08-04T08:39:24.880Z,247.50
2022-08-04T08:40:40.392Z,241.88
2022-08-04T08:41:23.627Z,236.25
2022-08-04T08:42:23.390Z,230.63
2022-08-04T08:44:06.348Z,225.00
2022-08-04T08:44:36.445Z,225.00
2022-08-04T08:45:23.736Z,219.38
2022-08-04T08:47:24.607Z,213.75
2022-08-04T08:48:23.743Z,208.13
2022-08-04T08:50:02.539Z,202.50
2022-08-04T08:50:24.432Z,196.88
2022-08-04T08:51:23.920Z,196.88
2022-08-04T08:52:55.306Z,191.25
2022-08-04T08:53:23.998Z,191.25
2022-08-04T08:54:24.505Z,191.25
2022-08-04T08:55:24.478Z,185.63
2022-08-04T08:56:31.037Z,185.63
2022-08-04T08:57:24.427Z,180.00
2022-08-04T08:58:23.942Z,180.00
2022-08-04T08:59:24.427Z,180.00
2022-08-04T09:00:31.693Z,180.00
2022-08-04T09:01:24.965Z,180.00
2022-08-04T09:02:24.538Z,174.38
2022-08-04T09:03:23.997Z,174.38
2022-08-04T09:04:25.884Z,174.38
2022-08-04T09:05:24.208Z,168.75
2022-08-04T09:06:24.100Z,168.75
2022-08-04T09:07:23.703Z,168.75
2022-08-04T09:08:23.499Z,163.13
2022-08-04T09:09:23.521Z,163.13
2022-08-04T09:10:23.540Z,163.13
2022-08-04T09:11:23.520Z,157.50
2022-08-04T09:12:25.906Z,157.50
2022-08-04T09:13:23.545Z,157.50
2022-08-04T09:14:23.565Z,151.88
2022-08-04T09:15:23.576Z,151.88
2022-08-04T09:16:23.639Z,151.88
2022-08-04T09:17:23.886Z,151.88
2022-08-04T09:18:23.609Z,146.25
2022-08-04T09:19:37.978Z,146.25
2022-08-04T09:20:23.650Z,146.25
2022-08-04T09:21:23.642Z,146.25
2022-08-04T09:22:23.649Z,140.63
2022-08-04T09:23:23.680Z,140.63
2022-08-04T09:24:35.800Z,140.63
2022-08-04T09:25:23.686Z,140.63
2022-08-04T09:26:23.689Z,140.63
2022-08-04T09:27:24.008Z,140.63
2022-08-04T09:28:50.761Z,135.00
2022-08-04T09:29:25.380Z,135.00
2022-08-04T09:30:26.344Z,135.00
2022-08-04T09:31:24.124Z,135.00
2022-08-04T09:32:24.517Z,135.00
2022-08-04T09:33:44.805Z,135.00
2022-08-04T09:34:24.550Z,135.00
2022-08-04T09:35:24.818Z,135.00
2022-08-04T09:36:25.922Z,135.00
2022-08-04T09:37:24.917Z,135.00
2022-08-04T09:38:25.343Z,135.00
2022-08-04T09:39:25.627Z,135.00
2022-08-04T09:40:31.508Z,135.00
2022-08-04T09:41:49.188Z,135.00
2022-08-04T09:42:25.952Z,135.00
2022-08-04T09:43:23.953Z,135.00
2022-08-04T09:44:50.936Z,135.00
2022-08-04T09:45:26.220Z,135.00
2022-08-04T09:46:24.172Z,140.63
2022-08-04T09:47:24.444Z,140.63
2022-08-04T09:48:24.243Z,135.00
2022-08-04T09:49:23.971Z,135.00
2022-08-04T09:50:23.942Z,129.38
2022-08-04T09:51:25.184Z,129.38
2022-08-04T09:52:24.422Z,135.00
2022-08-04T09:53:24.532Z,135.00
2022-08-04T09:55:24.384Z,135.00
2022-08-04T09:56:24.664Z,135.00
2022-08-04T09:57:25.145Z,135.00
2022-08-04T09:58:24.028Z,135.00
2022-08-04T09:59:24.035Z,135.00
2022-08-04T10:00:41.020Z,140.63
2022-08-04T10:01:24.061Z,135.00
2022-08-04T10:02:24.239Z,129.38
2022-08-04T10:03:24.155Z,129.38
2022-08-04T10:04:24.079Z,123.75
2022-08-04T10:05:24.111Z,123.75
2022-08-04T10:06:24.122Z,123.75
2022-08-04T10:07:24.390Z,123.75
2022-08-04T10:08:24.121Z,123.75
2022-08-04T10:09:24.142Z,123.75
2022-08-04T10:10:24.166Z,123.75
2022-08-04T10:11:24.164Z,123.75
2022-08-04T10:12:24.161Z,123.75
2022-08-04T10:13:24.184Z,129.38
2022-08-04T10:14:24.194Z,123.75
2022-08-04T10:15:24.489Z,118.13
2022-08-04T10:16:24.208Z,118.13
2022-08-04T10:17:24.391Z,118.13
2022-08-04T10:18:24.229Z,118.13
2022-08-04T10:19:24.234Z,118.13
2022-08-04T10:20:36.445Z,118.13
2022-08-04T10:21:24.255Z,118.13
2022-08-04T10:22:30.044Z,118.13
2022-08-04T10:23:24.289Z,118.13
2022-08-04T10:24:24.288Z,118.13
2022-08-04T10:25:44.451Z,118.13
2022-08-04T10:26:24.316Z,118.13
2022-08-04T10:27:24.328Z,118.13
2022-08-04T10:28:24.336Z,118.13
2022-08-04T10:29:24.365Z,118.13
2022-08-04T10:30:24.348Z,118.13
2022-08-04T10:31:24.360Z,118.13
2022-08-04T10:32:24.370Z,118.13
2022-08-04T10:33:24.376Z,123.75
2022-08-04T10:34:24.444Z,112.50
2022-08-04T10:35:24.403Z,112.50
2022-08-04T10:36:24.411Z,112.50
2022-08-04T10:37:59.349Z,112.50
2022-08-04T10:38:27.078Z,112.50
2022-08-04T10:39:43.354Z,112.50
2022-08-04T10:40:24.445Z,112.50
2022-08-04T10:41:24.458Z,112.50
2022-08-04T10:42:24.474Z,112.50
2022-08-04T10:43:24.478Z,112.50
2022-08-04T10:44:24.510Z,112.50
2022-08-04T10:45:24.515Z,112.50
2022-08-04T10:46:24.512Z,112.50
2022-08-04T10:47:24.517Z,112.50
2022-08-04T10:48:34.317Z,118.13
2022-08-04T10:49:24.550Z,112.50
2022-08-04T10:50:24.552Z,112.50
2022-08-04T10:51:24.558Z,118.13
2022-08-04T10:52:24.572Z,112.50
2022-08-04T10:53:24.583Z,112.50
2022-08-04T10:54:24.591Z,112.50
2022-08-04T10:56:06.246Z,118.13
2022-08-04T10:56:24.610Z,112.50
2022-08-04T10:57:24.759Z,112.50
2022-08-04T10:58:24.630Z,112.50
2022-08-04T10:59:24.638Z,112.50
2022-08-04T11:00:24.662Z,112.50
2022-08-04T11:02:00.862Z,112.50
2022-08-04T11:02:24.681Z,112.50
2022-08-04T11:03:24.749Z,106.88
2022-08-04T11:04:27.823Z,106.88
2022-08-04T11:05:24.706Z,112.50
2022-08-04T11:06:24.737Z,112.50
2022-08-04T11:07:24.875Z,112.50
2022-08-04T11:08:24.729Z,118.13
2022-08-04T11:09:24.744Z,118.13
2022-08-04T11:10:25.539Z,118.13
2022-08-04T11:11:24.755Z,118.13
2022-08-04T11:12:24.765Z,123.75
2022-08-04T11:13:29.789Z,123.75
2022-08-04T11:14:24.788Z,123.75
2022-08-04T11:15:24.809Z,123.75
2022-08-04T11:16:24.806Z,118.13
2022-08-04T11:17:24.821Z,118.13
2022-08-04T11:18:24.878Z,123.75
2022-08-04T11:19:45.132Z,118.13
2022-08-04T11:20:40.166Z,118.13
2022-08-04T11:21:24.874Z,112.50
2022-08-04T11:22:24.867Z,112.50
2022-08-04T11:23:24.881Z,112.50
2022-08-04T11:24:26.254Z,106.88
2022-08-04T11:25:24.908Z,106.88
2022-08-04T11:26:24.932Z,106.88
2022-08-04T11:27:24.929Z,106.88
2022-08-04T11:28:24.935Z,106.88
2022-08-04T11:29:24.948Z,101.25
2022-08-04T11:30:24.987Z,101.25
2022-08-04T11:31:24.977Z,101.25
2022-08-04T11:32:24.988Z,101.25
2022-08-04T11:33:25.014Z,106.88
2022-08-04T11:34:25.025Z,101.25
2022-08-04T11:35:25.017Z,101.25
2022-08-04T11:36:25.042Z,101.25
2022-08-04T11:37:25.244Z,101.25
2022-08-04T11:38:29.152Z,106.88
2022-08-04T11:39:25.091Z,106.88
2022-08-04T11:40:25.046Z,106.88
2022-08-04T11:41:25.062Z,112.50
2022-08-04T11:42:25.064Z,112.50
2022-08-04T11:44:01.144Z,112.50
2022-08-04T11:44:25.119Z,112.50
2022-08-04T11:45:25.119Z,112.50
2022-08-04T11:46:25.133Z,112.50
2022-08-04T11:47:25.121Z,112.50
2022-08-04T11:48:25.121Z,106.88
2022-08-04T11:49:25.138Z,106.88
2022-08-04T11:50:25.154Z,112.50
2022-08-04T11:51:25.180Z,112.50
2022-08-04T11:52:25.166Z,112.50
2022-08-04T11:53:25.202Z,112.50
2022-08-04T11:54:25.197Z,112.50
2022-08-04T11:55:25.223Z,123.75
2022-08-04T11:56:35.813Z,129.38
2022-08-04T11:57:25.746Z,135.00
2022-08-04T11:58:25.238Z,135.00
2022-08-04T11:59:25.241Z,140.63
2022-08-04T12:00:25.251Z,135.00
2022-08-04T12:01:25.260Z,140.63
2022-08-04T12:02:25.344Z,140.63
2022-08-04T12:03:25.298Z,140.63
2022-08-04T12:04:25.292Z,135.00
2022-08-04T12:05:35.579Z,135.00
2022-08-04T12:06:25.327Z,135.00
2022-08-04T12:07:35.421Z,140.63
2022-08-04T12:08:25.348Z,140.63
2022-08-04T12:09:25.346Z,146.25
2022-08-04T12:10:41.780Z,140.63
2022-08-04T12:11:25.374Z,146.25
2022-08-04T12:12:25.379Z,146.25
2022-08-04T12:13:25.383Z,146.25
2022-08-04T12:14:25.399Z,146.25
2022-08-04T12:15:25.402Z,146.25
2022-08-04T12:16:30.482Z,140.63
2022-08-04T12:17:25.421Z,140.63
2022-08-04T12:18:25.425Z,135.00
2022-08-04T12:19:25.499Z,135.00
2022-08-04T12:20:32.062Z,135.00
2022-08-04T12:21:25.454Z,129.38
2022-08-04T12:22:31.287Z,129.38
2022-08-04T12:23:25.500Z,140.63
2022-08-04T12:24:25.496Z,140.63
2022-08-04T12:25:25.512Z,140.63
2022-08-04T12:26:25.513Z,140.63
2022-08-04T12:27:30.347Z,135.00
2022-08-04T12:28:25.536Z,129.38
2022-08-04T12:29:25.550Z,129.38
2022-08-04T12:30:58.598Z,129.38
2022-08-04T12:31:25.575Z,129.38
2022-08-04T12:32:25.575Z,129.38
2022-08-04T12:34:02.694Z,135.00
2022-08-04T12:34:29.995Z,129.38
2022-08-04T12:35:25.632Z,112.50
2022-08-04T12:36:25.609Z,112.50
2022-08-04T12:37:25.620Z,118.13
2022-08-04T12:38:25.637Z,123.75
2022-08-04T12:39:25.704Z,123.75
2022-08-04T12:40:30.306Z,123.75
2022-08-04T12:41:25.666Z,118.13
2022-08-04T12:42:25.684Z,123.75
2022-08-04T12:43:25.688Z,123.75
2022-08-04T12:44:37.040Z,129.38
2022-08-04T12:45:25.708Z,123.75
2022-08-04T12:46:25.753Z,129.38
2022-08-04T12:47:29.131Z,135.00
2022-08-04T12:48:25.744Z,135.00
2022-08-04T12:49:25.791Z,135.00
2022-08-04T12:50:25.753Z,135.00
2022-08-04T12:52:06.178Z,140.63
2022-08-04T12:52:45.049Z,129.38
2022-08-04T12:53:31.776Z,118.13
2022-08-04T12:54:28.836Z,123.75
2022-08-04T12:55:25.850Z,129.38
2022-08-04T12:56:25.828Z,129.38
2022-08-04T12:57:25.836Z,123.75
2022-08-04T12:58:42.232Z,112.50
2022-08-04T12:59:25.862Z,118.13
2022-08-04T13:00:29.747Z,123.75
2022-08-04T13:02:07.221Z,123.75
2022-08-04T13:02:25.940Z,123.75
2022-08-04T13:03:25.936Z,123.75
2022-08-04T13:04:29.327Z,123.75
2022-08-04T13:05:25.904Z,129.38
2022-08-04T13:06:25.925Z,129.38
2022-08-04T13:07:25.939Z,123.75
2022-08-04T13:08:25.942Z,129.38
2022-08-04T13:09:25.949Z,135.00
2022-08-04T13:10:30.190Z,135.00
2022-08-04T13:11:25.980Z,135.00
2022-08-04T13:12:32.629Z,135.00
2022-08-04T13:13:26.003Z,129.38
2022-08-04T13:14:27.913Z,129.38
2022-08-04T13:15:26.024Z,123.75
2022-08-04T13:16:26.029Z,123.75
2022-08-04T13:17:26.494Z,123.75